createdAt,value
2018-09-15T00:00:33.460Z,19.97
2018-09-15T00:03:01.412Z,18.50
2018-09-15T00:05:29.309Z,20.13
2018-09-15T00:07:57.225Z,20.47
2018-09-15T00:10:25.178Z,20.07
2018-09-15T00:12:53.211Z,20.87
2018-09-15T00:15:21.303Z,20.07
2018-09-15T00:17:49.871Z,19.37
2018-09-15T00:20:17.766Z,20.77
2018-09-15T00:22:45.690Z,20.90
2018-09-15T00:25:13.639Z,19.00
2018-09-15T00:27:41.582Z,20.60
2018-09-15T00:30:09.494Z,22.20
2018-09-15T00:32:37.508Z,20.83
2018-09-15T00:35:05.482Z,19.87
2018-09-15T00:37:33.416Z,22.10
2018-09-15T00:40:01.354Z,19.17
2018-09-15T00:42:29.317Z,20.83
2018-09-15T00:44:57.201Z,20.80
2018-09-15T00:47:25.137Z,20.23
2018-09-15T00:49:53.136Z,20.90
2018-09-15T00:52:21.089Z,21.90
2018-09-15T00:54:49.100Z,22.67
2018-09-15T00:57:17.061Z,20.03
2018-09-15T00:59:44.989Z,22.00
2018-09-15T01:02:12.947Z,21.00
2018-09-15T01:04:40.873Z,21.47
2018-09-15T01:07:08.765Z,20.37
2018-09-15T01:09:36.693Z,21.00
2018-09-15T01:12:04.624Z,20.53
2018-09-15T01:14:32.619Z,20.00
2018-09-15T01:17:00.596Z,19.93
2018-09-15T01:19:28.509Z,19.20
2018-09-15T01:21:56.453Z,20.13
2018-09-15T01:24:24.412Z,21.57
2018-09-15T01:26:52.365Z,18.67
2018-09-15T01:29:20.235Z,20.40
2018-09-15T01:31:48.202Z,23.53
2018-09-15T01:34:16.201Z,16.27
2018-09-15T01:36:44.103Z,18.83
2018-09-15T01:39:12.080Z,20.40
2018-09-15T01:41:40.028Z,20.30
2018-09-15T01:44:07.946Z,21.80
2018-09-15T01:46:35.905Z,20.20
2018-09-15T01:49:03.903Z,20.37
2018-09-15T01:51:31.832Z,21.20
2018-09-15T01:53:59.766Z,21.13
2018-09-15T01:56:27.682Z,21.43
2018-09-15T01:58:55.542Z,22.47
2018-09-15T02:01:23.490Z,22.00
2018-09-15T02:03:51.409Z,20.40
2018-09-15T02:06:19.363Z,20.33
2018-09-15T02:08:47.259Z,23.30
2018-09-15T02:11:15.227Z,21.83
2018-09-15T02:13:43.125Z,18.13
2018-09-15T02:16:11.147Z,21.40
2018-09-15T02:18:39.129Z,20.20
2018-09-15T02:21:07.078Z,20.23
2018-09-15T02:23:35.025Z,18.50
2018-09-15T02:26:02.901Z,16.97
2018-09-15T02:28:30.852Z,18.20
2018-09-15T02:30:58.776Z,19.50
2018-09-15T02:33:26.688Z,22.17
2018-09-15T02:35:54.682Z,21.93
2018-09-15T02:38:22.586Z,23.33
2018-09-15T02:40:50.497Z,22.20
2018-09-15T02:43:18.366Z,21.80
2018-09-15T02:45:46.346Z,21.63
2018-09-15T02:48:14.220Z,23.13
2018-09-15T02:50:42.554Z,22.40
2018-09-15T02:53:10.480Z,22.47
2018-09-15T02:55:38.410Z,22.00
2018-09-15T02:58:06.470Z,23.90
2018-09-15T03:00:34.397Z,22.07
2018-09-15T03:03:02.346Z,22.37
2018-09-15T03:05:30.280Z,21.63
2018-09-15T03:07:58.238Z,19.50
2018-09-15T03:10:26.147Z,23.20
2018-09-15T03:12:54.051Z,22.00
2018-09-15T03:15:22.028Z,19.07
2018-09-15T03:17:49.933Z,20.50
2018-09-15T03:20:17.845Z,20.80
2018-09-15T03:22:45.842Z,18.50
2018-09-15T03:25:13.836Z,20.63
2018-09-15T03:27:41.742Z,21.90
2018-09-15T03:30:09.662Z,20.80
2018-09-15T03:32:37.565Z,20.50
2018-09-15T03:35:05.705Z,22.30
2018-09-15T03:37:33.633Z,18.07
2018-09-15T03:40:01.632Z,17.00
2018-09-15T03:42:29.566Z,14.97
2018-09-15T03:44:57.534Z,15.00
2018-09-15T03:47:25.424Z,16.33
2018-09-15T03:49:53.350Z,15.53
2018-09-15T03:52:21.332Z,19.03
2018-09-15T03:54:49.260Z,21.67
2018-09-15T03:57:17.205Z,21.30
2018-09-15T03:59:45.158Z,21.40
2018-09-15T04:02:13.087Z,22.67
2018-09-15T04:04:41.063Z,21.93
2018-09-15T04:07:08.958Z,23.33
2018-09-15T04:09:36.908Z,22.70
2018-09-15T04:12:04.848Z,22.40
2018-09-15T04:14:32.745Z,22.67
2018-09-15T04:17:00.681Z,22.90
2018-09-15T04:19:28.601Z,23.53
2018-09-15T04:21:56.508Z,23.30
2018-09-15T04:24:24.443Z,20.60
2018-09-15T04:26:52.551Z,22.77
2018-09-15T04:29:20.445Z,25.07
2018-09-15T04:31:48.372Z,24.20
2018-09-15T04:34:16.314Z,24.90
2018-09-15T04:36:44.254Z,21.57
2018-09-15T04:39:12.720Z,22.43
2018-09-15T04:41:41.214Z,26.47
2018-09-15T04:44:09.097Z,22.10
2018-09-15T04:46:36.977Z,22.90
2018-09-15T04:49:05.312Z,24.33
2018-09-15T04:51:33.254Z,26.67
2018-09-15T04:54:01.144Z,21.57
2018-09-15T04:56:29.130Z,21.70
2018-09-15T04:58:57.407Z,23.60
2018-09-15T05:01:25.426Z,20.47
2018-09-15T05:03:53.428Z,20.73
2018-09-15T05:06:21.537Z,19.00
2018-09-15T05:08:49.477Z,17.53
2018-09-15T05:11:17.399Z,22.83
2018-09-15T05:13:45.319Z,23.80
2018-09-15T05:16:13.212Z,23.93
2018-09-15T05:18:41.100Z,23.67
2018-09-15T05:21:09.003Z,23.53
2018-09-15T05:23:36.858Z,25.93
2018-09-15T05:26:04.812Z,27.10
2018-09-15T05:28:32.765Z,24.17
2018-09-15T05:31:00.661Z,27.80
2018-09-15T05:33:28.649Z,25.23
2018-09-15T05:35:56.594Z,24.80
2018-09-15T05:38:24.544Z,23.80
2018-09-15T05:40:52.477Z,24.27
2018-09-15T05:43:20.398Z,24.87
2018-09-15T05:45:48.313Z,24.77
2018-09-15T05:48:16.184Z,24.20
2018-09-15T05:50:44.138Z,20.60
2018-09-15T05:53:12.016Z,22.53
2018-09-15T05:55:39.912Z,21.63
2018-09-15T05:58:07.810Z,20.50
2018-09-15T06:00:35.787Z,25.03
2018-09-15T06:03:05.299Z,23.50
2018-09-15T06:05:33.253Z,24.00
2018-09-15T06:08:01.197Z,19.00
2018-09-15T06:10:29.077Z,21.90
2018-09-15T06:12:56.965Z,28.20
2018-09-15T06:15:24.981Z,17.30
2018-09-15T06:17:53.625Z,19.83
2018-09-15T06:20:21.570Z,22.53
2018-09-15T06:22:49.501Z,20.13
2018-09-15T06:25:17.819Z,23.77
2018-09-15T06:27:45.735Z,22.27
2018-09-15T06:30:13.643Z,22.07
2018-09-15T06:32:41.568Z,22.50
2018-09-15T06:35:10.088Z,19.80
2018-09-15T06:37:38.025Z,17.10
2018-09-15T06:40:06.102Z,20.70
2018-09-15T06:42:34.053Z,22.37
2018-09-15T06:45:03.834Z,21.60
2018-09-15T06:47:32.186Z,22.23
2018-09-15T06:50:00.184Z,22.67
2018-09-15T06:52:28.108Z,23.40
2018-09-15T06:54:56.034Z,20.27
2018-09-15T06:57:23.954Z,21.37
2018-09-15T06:59:52.108Z,24.37
2018-09-15T07:02:20.948Z,23.77
2018-09-15T07:04:48.867Z,22.67
2018-09-15T07:07:16.856Z,24.93
2018-09-15T07:09:44.808Z,23.53
2018-09-15T07:12:12.741Z,21.77
2018-09-15T07:14:40.629Z,26.03
2018-09-15T07:17:08.540Z,22.97
2018-09-15T07:19:36.482Z,23.00
2018-09-15T07:22:04.437Z,22.40
2018-09-15T07:24:38.984Z,20.80
2018-09-15T07:27:06.982Z,23.73
2018-09-15T07:29:34.868Z,19.77
2018-09-15T07:32:02.878Z,23.97
2018-09-15T07:34:31.060Z,22.73
2018-09-15T07:36:59.053Z,24.10
2018-09-15T07:39:27.134Z,20.60
2018-09-15T07:41:55.054Z,21.53
2018-09-15T07:44:23.024Z,23.10
2018-09-15T07:46:51.789Z,23.20
2018-09-15T07:49:19.789Z,22.80
2018-09-15T07:51:47.859Z,23.70
2018-09-15T07:54:15.889Z,20.47
2018-09-15T07:56:44.576Z,25.43
2018-09-15T07:59:12.653Z,23.80
2018-09-15T08:01:41.001Z,25.30
2018-09-15T08:04:09.938Z,26.33
2018-09-15T08:06:37.980Z,25.27
2018-09-15T08:09:06.733Z,26.70
2018-09-15T08:11:38.832Z,26.33
2018-09-15T08:14:07.881Z,25.90
2018-09-15T08:16:36.665Z,25.80
2018-09-15T08:19:05.013Z,26.63
2018-09-15T08:21:33.143Z,27.30
2018-09-15T08:24:01.186Z,26.83
2018-09-15T08:26:29.186Z,27.73
2018-09-15T08:28:58.068Z,25.10
2018-09-15T08:31:26.181Z,29.80
2018-09-15T08:33:54.359Z,26.27
2018-09-15T08:36:22.373Z,28.80
2018-09-15T08:38:50.429Z,30.03
2018-09-15T08:41:18.466Z,31.67
2018-09-15T08:43:46.777Z,31.40
2018-09-15T08:46:14.744Z,32.00
2018-09-15T08:48:42.673Z,30.43
2018-09-15T08:51:10.589Z,32.57
2018-09-15T08:53:38.492Z,33.80
2018-09-15T08:56:06.488Z,33.10
2018-09-15T08:58:34.454Z,32.80
2018-09-15T09:01:02.364Z,31.60
2018-09-15T09:03:30.606Z,33.00
2018-09-15T09:05:58.651Z,30.63
2018-09-15T09:08:26.650Z,34.23
2018-09-15T09:10:54.598Z,32.53
2018-09-15T09:13:22.549Z,31.37
2018-09-15T09:15:50.765Z,33.73
2018-09-15T09:18:19.756Z,31.33
2018-09-15T09:20:47.841Z,34.30
2018-09-15T09:23:15.877Z,32.80
2018-09-15T09:25:43.881Z,30.37
2018-09-15T09:28:11.740Z,28.70
2018-09-15T09:30:39.939Z,31.17
2018-09-15T09:33:08.165Z,29.73
2018-09-15T09:35:36.379Z,33.60
2018-09-15T09:38:04.412Z,34.20
2018-09-15T09:40:32.369Z,36.77
2018-09-15T09:43:00.569Z,34.73
2018-09-15T09:45:28.544Z,34.20
2018-09-15T09:47:56.561Z,35.83
2018-09-15T09:50:24.546Z,31.40
2018-09-15T09:52:52.432Z,29.53
2018-09-15T09:55:20.338Z,31.90
2018-09-15T09:57:48.260Z,33.13
2018-09-15T10:00:21.643Z,33.47
2018-09-15T10:02:49.553Z,29.27
2018-09-15T10:05:17.505Z,29.37
2018-09-15T10:07:45.368Z,28.23
2018-09-15T10:10:13.331Z,29.40
2018-09-15T10:12:41.510Z,24.97
2018-09-15T10:15:09.515Z,27.27
2018-09-15T10:17:37.401Z,27.13
2018-09-15T10:20:05.360Z,23.80
2018-09-15T10:22:34.543Z,23.80
2018-09-15T10:25:02.481Z,24.30
2018-09-15T10:27:30.435Z,25.70
2018-09-15T10:29:58.374Z,23.43
2018-09-15T10:32:26.313Z,23.50
2018-09-15T10:34:54.665Z,21.47
2018-09-15T10:37:22.741Z,23.63
2018-09-15T10:39:50.821Z,21.77
2018-09-15T10:42:18.813Z,22.20
2018-09-15T10:44:46.798Z,20.37
2018-09-15T10:47:14.747Z,21.57
2018-09-15T10:49:42.901Z,21.07
2018-09-15T10:52:11.060Z,21.50
2018-09-15T10:54:39.839Z,21.33
2018-09-15T10:57:08.741Z,17.97
2018-09-15T10:59:37.626Z,20.63
2018-09-15T11:09:11.035Z,15.27
2018-09-15T11:11:39.122Z,18.07
2018-09-15T11:14:07.145Z,18.47
2018-09-15T11:16:37.452Z,19.07
2018-09-15T11:19:06.361Z,16.80
2018-09-15T11:21:34.481Z,15.80
2018-09-15T11:24:03.360Z,18.80
2018-09-15T11:26:31.533Z,20.20
2018-09-15T11:29:01.639Z,18.63
2018-09-15T11:31:30.310Z,17.77
2018-09-15T11:33:58.411Z,13.83
2018-09-15T11:36:26.405Z,16.90
2018-09-15T11:38:54.433Z,17.13
2018-09-15T11:41:22.477Z,17.37
2018-09-15T11:43:51.204Z,18.57
2018-09-15T11:46:19.187Z,17.10
2018-09-15T11:48:47.150Z,17.20
2018-09-15T11:51:15.886Z,16.40
2018-09-15T11:53:44.509Z,14.87
2018-09-15T11:56:12.525Z,15.07
2018-09-15T11:58:40.977Z,16.77
2018-09-15T12:01:09.090Z,12.97
2018-09-15T12:03:37.191Z,14.90
2018-09-15T12:06:05.110Z,11.03
2018-09-15T12:08:33.048Z,11.03
2018-09-15T12:11:00.990Z,11.83
2018-09-15T12:13:28.908Z,11.50
2018-09-15T12:15:56.821Z,9.97
2018-09-15T12:20:59.542Z,8.90
2018-09-15T12:23:27.440Z,8.10
2018-09-15T12:25:55.361Z,8.70
2018-09-15T12:28:23.364Z,8.67
2018-09-15T12:30:51.317Z,8.53
2018-09-15T12:33:19.317Z,8.77
2018-09-15T12:35:47.197Z,7.77
2018-09-15T12:38:15.089Z,8.10
2018-09-15T12:40:42.977Z,6.97
2018-09-15T12:43:11.058Z,6.67
2018-09-15T12:45:39.065Z,6.33
2018-09-15T12:48:07.010Z,6.53
2018-09-15T12:50:34.914Z,6.47
2018-09-15T12:53:02.820Z,6.30
2018-09-15T12:55:30.687Z,6.20
2018-09-15T12:57:58.637Z,6.13
2018-09-15T13:00:26.562Z,6.40
2018-09-15T13:02:54.469Z,6.60
2018-09-15T13:05:22.446Z,6.50
2018-09-15T13:07:50.365Z,6.97
2018-09-15T13:10:18.282Z,6.30
2018-09-15T13:12:46.739Z,6.30
2018-09-15T13:15:14.654Z,6.30
2018-09-15T13:17:42.526Z,6.60
2018-09-15T13:20:10.514Z,5.90
2018-09-15T13:22:38.535Z,6.47
2018-09-15T13:25:06.564Z,7.43
2018-09-15T13:27:34.623Z,6.30
2018-09-15T13:30:02.663Z,7.23
2018-09-15T13:32:30.626Z,6.40
2018-09-15T13:34:58.757Z,6.07
2018-09-15T13:37:26.758Z,7.17
2018-09-15T13:39:54.759Z,6.67
2018-09-15T13:42:22.746Z,5.47
2018-09-15T13:44:50.698Z,5.90
2018-09-15T13:47:18.712Z,4.90
2018-09-15T13:49:46.606Z,5.40
2018-09-15T13:52:14.574Z,6.60
2018-09-15T13:54:42.505Z,7.10
2018-09-15T13:57:10.466Z,5.80
2018-09-15T13:59:38.546Z,6.20
2018-09-15T14:02:06.534Z,6.80
2018-09-15T14:04:34.498Z,5.43
2018-09-15T14:07:02.449Z,6.43
2018-09-15T14:09:30.374Z,6.23
2018-09-15T14:11:58.314Z,6.23
2018-09-15T14:14:26.333Z,5.63
2018-09-15T14:16:54.368Z,5.70
2018-09-15T14:19:22.230Z,5.83
2018-09-15T14:21:50.214Z,6.13
2018-09-15T14:24:18.112Z,6.43
2018-09-15T14:26:46.071Z,6.30
2018-09-15T14:29:14.027Z,6.20
2018-09-15T14:31:41.957Z,5.90
2018-09-15T14:34:09.861Z,6.10
2018-09-15T14:36:37.848Z,6.00
2018-09-15T14:39:07.967Z,6.30
2018-09-15T14:41:35.926Z,5.57
2018-09-15T14:44:03.889Z,6.20
2018-09-15T14:46:31.872Z,5.90
2018-09-15T14:48:59.783Z,5.87
2018-09-15T14:51:27.688Z,6.07
2018-09-15T14:53:55.626Z,5.90
2018-09-15T14:56:23.687Z,5.63
2018-09-15T14:58:51.566Z,5.80
2018-09-15T15:01:19.516Z,6.27
2018-09-15T15:03:47.490Z,5.70
2018-09-15T15:06:15.413Z,6.10
2018-09-15T15:08:43.374Z,6.17
2018-09-15T15:11:11.386Z,6.13
2018-09-15T15:13:39.384Z,5.57
2018-09-15T15:16:07.601Z,5.40
2018-09-15T15:18:35.608Z,5.73
2018-09-15T15:21:04.345Z,5.50
2018-09-15T15:23:32.290Z,5.73
2018-09-15T15:26:00.256Z,5.70
2018-09-15T15:28:28.179Z,5.73
2018-09-15T15:30:56.146Z,5.07
2018-09-15T15:33:24.163Z,5.70
2018-09-15T15:35:52.042Z,5.33
2018-09-15T15:38:20.062Z,5.20
2018-09-15T15:40:47.994Z,5.37
2018-09-15T15:43:15.983Z,5.40
2018-09-15T15:45:43.922Z,4.93
2018-09-15T15:48:11.874Z,5.30
2018-09-15T15:50:39.791Z,5.00
2018-09-15T15:53:07.941Z,5.03
2018-09-15T15:55:36.014Z,4.67
2018-09-15T15:58:04.105Z,5.07
2018-09-15T16:00:32.158Z,5.47
2018-09-15T16:03:00.126Z,5.40
2018-09-15T16:05:28.070Z,4.63
2018-09-15T16:07:56.045Z,5.40
2018-09-15T16:10:23.927Z,4.70
2018-09-15T16:12:51.852Z,5.23
2018-09-15T16:15:20.394Z,5.17
2018-09-15T16:17:48.331Z,4.97
2018-09-15T16:20:16.291Z,5.10
2018-09-15T16:22:44.242Z,5.03
2018-09-15T16:25:12.194Z,4.60
2018-09-15T16:27:40.137Z,5.10
2018-09-15T16:30:08.096Z,5.03
2018-09-15T16:32:36.053Z,5.03
2018-09-15T16:35:04.044Z,4.70
2018-09-15T16:37:31.977Z,5.00
2018-09-15T16:39:59.962Z,5.30
2018-09-15T16:42:27.889Z,4.90
2018-09-15T16:44:55.869Z,4.93
2018-09-15T16:47:23.861Z,5.30
2018-09-15T16:49:51.845Z,5.57
2018-09-15T16:52:19.861Z,5.40
2018-09-15T16:54:47.774Z,4.57
2018-09-15T16:57:15.775Z,4.80
2018-09-15T16:59:44.221Z,5.70
2018-09-15T17:02:12.230Z,4.60
2018-09-15T17:04:40.221Z,4.73
2018-09-15T17:07:08.161Z,5.33
2018-09-15T17:09:36.186Z,4.80
2018-09-15T17:12:04.309Z,4.97
2018-09-15T17:14:32.433Z,4.90
2018-09-15T17:17:00.527Z,6.10
2018-09-15T17:19:28.483Z,5.47
2018-09-15T17:21:56.449Z,5.77
2018-09-15T17:24:24.490Z,5.17
2018-09-15T17:26:52.478Z,5.70
2018-09-15T17:29:20.462Z,5.97
2018-09-15T17:31:48.617Z,5.50
2018-09-15T17:34:16.674Z,5.17
2018-09-15T17:36:44.683Z,5.73
2018-09-15T17:39:12.744Z,5.33
2018-09-15T17:41:40.778Z,5.50
2018-09-15T17:44:08.737Z,5.20
2018-09-15T17:46:36.788Z,5.50
2018-09-15T17:49:04.875Z,5.83
2018-09-15T17:51:32.982Z,5.13
2018-09-15T17:54:01.026Z,6.47
2018-09-15T17:56:29.053Z,6.50
2018-09-15T17:58:57.169Z,6.50
2018-09-15T18:01:25.318Z,6.33
2018-09-15T18:03:53.262Z,6.57
2018-09-15T18:06:21.405Z,6.20
2018-09-15T18:08:49.606Z,6.67
2018-09-15T18:11:17.710Z,5.83
2018-09-15T18:13:46.950Z,5.63
2018-09-15T18:16:14.991Z,5.70
2018-09-15T18:18:43.992Z,6.67
2018-09-15T18:21:12.033Z,9.80
2018-09-15T18:23:40.174Z,8.57
2018-09-15T18:26:08.225Z,9.00
2018-09-15T18:28:36.245Z,7.80
2018-09-15T18:31:04.756Z,7.23
2018-09-15T18:33:32.850Z,7.80
2018-09-15T18:36:00.864Z,6.57
2018-09-15T18:38:28.985Z,7.50
2018-09-15T18:40:56.953Z,8.33
2018-09-15T18:43:25.089Z,9.23
2018-09-15T18:45:53.065Z,8.17
2018-09-15T18:48:21.085Z,8.27
2018-09-15T18:50:49.122Z,8.90
2018-09-15T18:53:18.057Z,9.07
2018-09-15T18:55:46.124Z,9.23
2018-09-15T18:58:14.128Z,9.17
2018-09-15T19:00:42.152Z,8.00
2018-09-15T19:03:14.420Z,6.40
2018-09-15T19:05:42.876Z,6.80
2018-09-15T19:08:10.905Z,6.67
2018-09-15T19:10:39.057Z,7.97
2018-09-15T19:13:07.094Z,8.10
2018-09-15T19:15:35.125Z,6.83
2018-09-15T19:18:03.177Z,6.97
2018-09-15T19:20:31.221Z,8.10
2018-09-15T19:22:59.392Z,7.17
2018-09-15T19:25:27.525Z,7.93
2018-09-15T19:27:55.473Z,6.93
2018-09-15T19:30:23.462Z,6.70
2018-09-15T19:32:51.564Z,9.30
2018-09-15T19:35:19.621Z,8.40
2018-09-15T19:37:48.046Z,8.83
2018-09-15T19:40:16.074Z,8.30
2018-09-15T19:42:44.092Z,8.80
2018-09-15T19:45:12.057Z,10.10
2018-09-15T19:47:40.022Z,8.00
2018-09-15T19:50:08.088Z,8.30
2018-09-15T19:52:36.314Z,9.20
2018-09-15T19:55:05.011Z,9.27
2018-09-15T19:57:34.173Z,9.83
2018-09-15T20:00:04.747Z,9.70
2018-09-15T20:02:33.137Z,10.30
2018-09-15T20:05:05.258Z,9.13
2018-09-15T20:07:33.586Z,9.27
2018-09-15T20:10:01.891Z,10.60
2018-09-15T20:12:29.970Z,9.37
2018-09-15T20:14:57.852Z,11.20
2018-09-15T20:17:25.048Z,10.13
2018-09-15T20:19:55.601Z,11.70
2018-09-15T20:22:24.118Z,10.57
2018-09-15T20:24:52.248Z,11.80
2018-09-15T20:27:21.234Z,11.40
2018-09-15T20:29:49.336Z,11.37
2018-09-15T20:32:17.383Z,11.90
2018-09-15T20:34:45.327Z,9.80
2018-09-15T20:37:13.423Z,12.47
2018-09-15T20:39:41.503Z,12.57
2018-09-15T20:42:09.577Z,12.67
2018-09-15T20:44:38.507Z,10.60
2018-09-15T20:47:07.251Z,12.67
2018-09-15T20:49:35.362Z,12.70
2018-09-15T20:52:03.424Z,11.63
2018-09-15T20:54:31.750Z,11.80
2018-09-15T20:57:00.916Z,11.77
2018-09-15T20:59:28.921Z,11.13
2018-09-15T21:01:56.944Z,11.17
2018-09-15T21:04:25.374Z,12.53
2018-09-15T21:06:53.806Z,10.93
2018-09-15T21:09:21.855Z,10.93
2018-09-15T21:11:49.887Z,12.17
2018-09-15T21:14:17.928Z,13.70
2018-09-15T21:16:45.929Z,13.80
2018-09-15T21:19:14.091Z,14.03
2018-09-15T21:21:42.442Z,12.43
2018-09-15T21:24:11.320Z,13.00
2018-09-15T21:26:39.408Z,13.00
2018-09-15T21:29:07.403Z,10.40
2018-09-15T21:31:36.393Z,11.60
2018-09-15T21:34:04.775Z,13.50
2018-09-15T21:36:32.790Z,14.83
2018-09-15T21:39:01.496Z,13.00
2018-09-15T21:41:29.506Z,16.20
2018-09-15T21:43:57.547Z,14.57
2018-09-15T21:46:25.525Z,26.70
2018-09-15T21:48:53.490Z,22.77
2018-09-15T21:51:21.501Z,17.97
2018-09-15T21:53:50.082Z,26.23
2018-09-15T21:56:18.119Z,24.00
2018-09-15T21:58:46.040Z,14.70
2018-09-15T22:01:14.029Z,16.00
2018-09-15T22:03:47.574Z,15.43
2018-09-15T22:06:15.538Z,15.00
2018-09-15T22:08:43.599Z,14.20
2018-09-15T22:11:12.341Z,16.37
2018-09-15T22:13:40.503Z,13.37
2018-09-15T22:16:08.517Z,14.00
2018-09-15T22:18:36.468Z,13.53
2018-09-15T22:21:05.533Z,13.90
2018-09-15T22:23:33.512Z,14.00
2018-09-15T22:26:01.608Z,13.80
2018-09-15T22:28:29.637Z,12.50
2018-09-15T22:30:57.598Z,13.10
2018-09-15T22:33:25.584Z,13.30
2018-09-15T22:35:53.517Z,12.33
2018-09-15T22:38:21.535Z,11.83
2018-09-15T22:40:50.520Z,13.32
2018-09-15T22:43:18.558Z,11.37
2018-09-15T22:45:46.577Z,12.05
2018-09-15T22:48:14.620Z,11.90
2018-09-15T22:50:42.708Z,11.70
2018-09-15T22:53:10.781Z,11.37
2018-09-15T22:55:38.813Z,12.63
2018-09-15T22:58:06.744Z,12.47
2018-09-15T23:00:34.783Z,11.40
2018-09-15T23:03:02.780Z,11.08
2018-09-15T23:05:31.449Z,11.40
2018-09-15T23:07:59.440Z,11.33
2018-09-15T23:10:27.472Z,12.37
2018-09-15T23:12:56.239Z,11.20
2018-09-15T23:15:24.353Z,11.43
2018-09-15T23:17:52.421Z,12.13
2018-09-15T23:20:21.038Z,11.93
2018-09-15T23:22:49.264Z,12.78
2018-09-15T23:25:17.265Z,13.15
2018-09-15T23:27:45.279Z,14.45
2018-09-15T23:30:13.241Z,13.25
2018-09-15T23:32:41.257Z,14.25
2018-09-15T23:35:09.268Z,13.85
2018-09-15T23:37:37.326Z,13.35
2018-09-15T23:40:05.310Z,13.93
2018-09-15T23:42:33.272Z,14.28
2018-09-15T23:45:01.250Z,13.80
2018-09-15T23:47:29.301Z,14.33
2018-09-15T23:49:58.158Z,12.80
2018-09-15T23:52:26.101Z,12.93
2018-09-15T23:54:54.130Z,13.50
2018-09-15T23:57:22.099Z,14.35
2018-09-15T23:59:50.039Z,13.25
